createdAt,value
2019-04-27T00:31:13.233Z,6.20
2019-04-27T00:33:43.356Z,6.22
2019-04-27T00:36:16.326Z,5.70
2019-04-27T00:38:56.090Z,6.33
2019-04-27T02:22:29.746Z,6.67
2019-04-27T03:07:50.541Z,6.25
2019-04-27T03:23:43.557Z,7.22
2019-04-27T03:26:19.613Z,8.48
2019-04-27T03:28:46.820Z,7.25
2019-04-27T03:31:16.422Z,7.08
2019-04-27T03:33:45.110Z,7.80
2019-04-27T03:36:13.726Z,8.78
2019-04-27T03:38:42.965Z,7.45
2019-04-27T03:41:12.189Z,7.50
2019-04-27T03:43:40.746Z,7.92
2019-04-27T03:46:10.291Z,8.15
2019-04-27T03:48:40.458Z,7.40
2019-04-27T03:51:19.953Z,7.15
2019-04-27T03:54:00.467Z,7.20
2019-04-27T03:56:35.714Z,7.58
2019-04-27T03:59:10.146Z,7.45
2019-04-27T04:01:39.359Z,7.30
2019-04-27T04:04:05.997Z,8.65
2019-04-27T04:06:34.621Z,7.30
2019-04-27T04:24:20.157Z,9.20
2019-04-27T04:26:50.293Z,8.38
2019-04-27T04:29:20.077Z,7.80
2019-04-27T04:31:50.017Z,7.92
2019-04-27T04:34:15.964Z,8.48
2019-04-27T04:36:44.557Z,8.95
2019-04-27T04:39:13.135Z,9.03
2019-04-27T04:41:50.656Z,7.95
2019-04-27T04:44:36.779Z,8.13
2019-04-27T04:47:30.579Z,8.08
2019-04-27T04:50:10.341Z,8.15
2019-04-27T04:52:29.277Z,8.33
2019-04-27T04:54:55.375Z,8.20
2019-04-27T04:57:23.967Z,9.03
2019-04-27T04:59:53.496Z,9.60
2019-04-27T05:02:22.200Z,9.30
2019-04-27T06:15:26.645Z,7.00
2019-04-27T06:17:55.486Z,7.35
2019-04-27T06:20:24.227Z,7.55
2019-04-27T06:22:52.753Z,6.75
2019-04-27T06:25:21.931Z,7.97
2019-04-27T06:27:50.350Z,8.97
2019-04-27T06:30:19.621Z,8.40
2019-04-27T06:32:49.477Z,7.97
2019-04-27T06:35:18.651Z,8.35
2019-04-27T06:37:49.268Z,8.05
2019-04-27T06:40:16.649Z,9.25
2019-04-27T06:42:45.282Z,9.00
2019-04-27T06:45:14.025Z,8.97
2019-04-27T06:47:42.581Z,8.50
2019-04-27T06:50:11.333Z,7.95
2019-04-27T06:52:40.401Z,7.97
2019-04-27T06:55:09.408Z,8.08
2019-04-27T06:57:39.098Z,7.40
2019-04-27T07:00:06.433Z,7.80
2019-04-27T07:02:36.609Z,8.73
2019-04-27T07:05:05.289Z,7.90
2019-04-27T07:07:33.797Z,8.28
2019-04-27T07:10:02.349Z,8.40
2019-04-27T07:12:31.185Z,8.73
2019-04-27T07:14:59.960Z,9.30
2019-04-27T07:17:29.063Z,9.25
2019-04-27T07:19:59.245Z,9.28
2019-04-27T07:22:26.876Z,9.28
2019-04-27T07:24:55.739Z,8.70
2019-04-27T07:27:24.814Z,8.83
2019-04-27T07:29:53.728Z,8.88
2019-04-27T07:32:22.304Z,9.28
2019-04-27T07:34:55.082Z,8.68
2019-04-27T07:37:22.034Z,8.07
2019-04-27T07:39:50.773Z,8.30
2019-04-27T07:42:21.895Z,8.18
2019-04-27T07:44:56.016Z,9.68
2019-04-27T07:47:26.548Z,8.30
2019-04-27T07:49:55.397Z,7.83
2019-04-27T07:52:24.004Z,8.68
2019-04-27T07:54:53.593Z,8.65
2019-04-27T07:57:22.285Z,8.03
2019-04-27T07:59:52.171Z,8.15
2019-04-27T08:02:20.992Z,8.18
2019-04-27T08:04:50.533Z,9.38
2019-04-27T08:07:19.597Z,8.15
2019-04-27T08:09:49.301Z,8.80
2019-04-27T08:12:16.072Z,8.43
2019-04-27T08:14:44.632Z,8.45
2019-04-27T08:17:13.377Z,9.08
2019-04-27T08:19:42.061Z,9.18
2019-04-27T08:22:11.753Z,9.17
2019-04-27T08:24:42.216Z,9.50
2019-04-27T08:27:19.322Z,8.35
2019-04-27T08:30:01.808Z,9.30
2019-04-27T08:32:35.392Z,9.93
2019-04-27T08:35:04.812Z,10.00
2019-04-27T08:37:34.484Z,9.35
2019-04-27T08:40:04.808Z,9.63
2019-04-27T08:42:34.052Z,9.20
2019-04-27T08:45:04.740Z,8.90
2019-04-27T08:47:33.468Z,9.18
2019-04-27T08:50:02.980Z,8.50
2019-04-27T08:52:31.796Z,8.70
2019-04-27T08:55:00.476Z,8.90
2019-04-27T08:57:30.720Z,8.60
2019-04-27T08:59:59.763Z,9.35
2019-04-27T09:02:41.128Z,8.98
2019-04-27T09:07:43.285Z,8.43
2019-04-27T09:10:18.749Z,8.13
2019-04-27T09:13:23.617Z,8.10
2019-04-27T09:15:57.881Z,8.58
2019-04-27T09:18:29.089Z,8.88
2019-04-27T09:20:59.449Z,9.28
2019-04-27T09:23:28.683Z,8.45
2019-04-27T09:25:59.495Z,9.13
2019-04-27T09:28:27.264Z,8.90
2019-04-27T09:33:41.405Z,8.60
2019-04-27T09:36:10.692Z,8.53
2019-04-27T09:38:40.585Z,8.40
2019-04-27T09:41:11.186Z,8.95
2019-04-27T09:43:40.565Z,9.63
2019-04-27T09:46:10.295Z,8.38
2019-04-27T09:48:40.873Z,8.88
2019-04-27T09:51:09.743Z,9.14
2019-04-27T09:53:39.626Z,12.18
2019-04-27T09:56:10.738Z,13.18
2019-04-27T09:58:39.664Z,10.50
2019-04-27T10:01:09.224Z,10.70
2019-04-27T10:03:43.297Z,11.53
2019-04-27T10:06:12.796Z,12.47
2019-04-27T10:08:41.756Z,12.05
2019-04-27T10:14:03.084Z,11.22
2019-04-27T10:16:32.008Z,10.90
2019-04-27T10:19:01.527Z,9.98
2019-04-27T10:21:30.090Z,10.28
2019-04-27T10:23:58.833Z,9.45
2019-04-27T10:26:27.984Z,9.95
2019-04-27T10:28:56.519Z,9.58
2019-04-27T10:31:25.172Z,9.70
2019-04-27T10:33:53.810Z,10.38
2019-04-27T10:36:27.644Z,9.80
2019-04-27T10:38:56.263Z,11.53
2019-04-27T10:41:25.949Z,10.95
2019-04-27T10:43:54.599Z,10.43
2019-04-27T10:46:25.820Z,12.05
2019-04-27T10:48:53.112Z,11.60
2019-04-27T10:51:21.871Z,11.30
2019-04-27T10:53:50.427Z,12.73
2019-04-27T10:56:18.931Z,11.10
2019-04-27T10:58:48.468Z,12.30
2019-04-27T11:01:17.736Z,11.08
2019-04-27T11:03:51.595Z,11.53
2019-04-27T11:06:29.339Z,12.18
2019-04-27T11:08:58.053Z,12.68
2019-04-27T11:11:27.816Z,12.18
2019-04-27T11:13:56.934Z,11.40
2019-04-27T11:16:27.987Z,11.93
2019-04-27T11:18:58.713Z,13.08
2019-04-27T11:21:26.197Z,12.05
2019-04-27T11:23:55.860Z,12.88
2019-04-27T11:26:23.279Z,12.87
2019-04-27T11:28:51.971Z,12.00
2019-04-27T11:31:20.773Z,12.80
2019-04-27T11:33:49.695Z,11.78
2019-04-27T11:36:58.746Z,12.25
2019-04-27T11:39:28.306Z,13.20
2019-04-27T11:41:57.163Z,13.25
2019-04-27T11:44:26.486Z,12.90
2019-04-27T11:46:55.928Z,12.82
2019-04-27T11:49:23.630Z,12.50
2019-04-27T11:51:52.970Z,13.40
2019-04-27T11:54:21.570Z,13.10
2019-04-27T11:56:50.934Z,11.93
2019-04-27T11:59:21.354Z,13.00
2019-04-27T12:01:50.976Z,12.90
2019-04-27T12:04:19.501Z,12.18
2019-04-27T12:06:48.096Z,13.10
2019-04-27T12:09:16.733Z,14.68
2019-04-27T12:11:45.388Z,14.50
2019-04-27T12:14:13.869Z,16.07
2019-04-27T12:16:42.493Z,18.62
2019-04-27T12:19:11.089Z,18.13
2019-04-27T12:21:39.647Z,19.60
2019-04-27T12:24:08.332Z,19.52
2019-04-27T12:26:42.740Z,19.15
2019-04-27T12:29:12.385Z,19.00
2019-04-27T12:31:46.430Z,20.52
2019-04-27T12:34:12.095Z,20.40
2019-04-27T12:36:40.849Z,20.50
2019-04-27T12:39:11.149Z,19.12
2019-04-27T12:41:40.425Z,21.68
2019-04-27T12:44:09.574Z,20.88
2019-04-27T12:46:38.472Z,19.82
2019-04-27T12:49:07.200Z,20.17
2019-04-27T12:51:37.328Z,21.10
2019-04-27T12:54:08.800Z,21.60
2019-04-27T12:56:48.584Z,21.17
2019-04-27T12:59:21.292Z,20.32
2019-04-27T13:01:50.316Z,20.82
2019-04-27T13:04:18.884Z,20.15
2019-04-27T13:06:47.616Z,19.98
2019-04-27T13:09:17.303Z,20.20
2019-04-27T13:11:45.909Z,19.95
2019-04-27T13:16:49.336Z,18.70
2019-04-27T13:19:17.859Z,19.00
2019-04-27T13:21:46.937Z,19.02
2019-04-27T13:24:15.076Z,18.53
2019-04-27T13:26:43.624Z,18.80
2019-04-27T13:29:12.168Z,19.17
2019-04-27T13:31:44.236Z,18.62
2019-04-27T13:34:12.715Z,19.67
2019-04-27T13:36:42.620Z,19.50
2019-04-27T13:39:11.212Z,17.70
2019-04-27T13:41:39.808Z,18.20
2019-04-27T13:44:09.223Z,16.95
2019-04-27T13:47:46.072Z,17.30
2019-04-27T13:50:18.847Z,16.80
2019-04-27T13:52:47.475Z,16.37
2019-04-27T13:55:16.071Z,16.10
2019-04-27T13:57:50.554Z,16.25
2019-04-27T14:00:13.368Z,16.37
2019-04-27T14:02:44.127Z,17.23
2019-04-27T14:05:11.836Z,15.85
2019-04-27T14:07:40.817Z,15.32
2019-04-27T14:10:09.744Z,14.55
2019-04-27T14:12:38.631Z,15.18
2019-04-27T14:15:08.622Z,14.85
2019-04-27T14:17:35.839Z,15.72
2019-04-27T14:20:05.296Z,16.32
2019-04-27T14:22:33.947Z,15.03
2019-04-27T14:25:02.514Z,16.12
2019-04-27T14:27:36.834Z,15.58
2019-04-27T14:30:03.371Z,16.15
2019-04-27T14:32:31.956Z,16.85
2019-04-27T14:35:00.506Z,16.60
2019-04-27T14:37:29.011Z,17.17
2019-04-27T14:39:59.717Z,17.23
2019-04-27T14:42:26.815Z,17.45
2019-04-27T14:44:55.381Z,16.85
2019-04-27T14:47:23.964Z,19.17
2019-04-27T14:49:52.543Z,17.52
2019-04-27T14:52:22.304Z,18.90
2019-04-27T14:54:55.551Z,18.10
2019-04-27T14:57:24.097Z,17.82
2019-04-27T14:59:52.683Z,17.67
2019-04-27T15:02:21.212Z,17.98
2019-04-27T15:04:49.811Z,17.92
2019-04-27T15:07:18.324Z,17.15
2019-04-27T15:09:49.618Z,17.42
2019-04-27T15:12:15.822Z,16.12
2019-04-27T15:14:44.011Z,17.60
2019-04-27T15:17:12.834Z,16.35
2019-04-27T15:19:48.538Z,15.88
2019-04-27T15:22:19.708Z,14.18
2019-04-27T15:24:55.661Z,15.15
2019-04-27T15:27:15.695Z,13.98
2019-04-27T15:29:45.191Z,15.20
2019-04-27T15:32:19.027Z,15.30
2019-04-27T15:35:00.545Z,15.00
2019-04-27T15:37:34.231Z,14.13
2019-04-27T15:40:10.129Z,15.05
2019-04-27T15:42:41.666Z,14.33
2019-04-27T15:45:08.982Z,14.07
2019-04-27T15:47:35.911Z,14.53
2019-04-27T15:50:05.563Z,14.47
2019-04-27T15:52:34.123Z,15.13
2019-04-27T15:55:11.170Z,15.05
2019-04-27T15:57:31.879Z,15.08
2019-04-27T16:00:00.394Z,14.45
2019-04-27T16:02:29.028Z,15.43
2019-04-27T16:04:58.264Z,14.55
2019-04-27T16:07:30.399Z,14.00
2019-04-27T16:09:59.135Z,15.43
2019-04-27T16:12:23.615Z,14.75
2019-04-27T16:14:52.194Z,14.58
2019-04-27T16:17:20.835Z,15.70
2019-04-27T16:19:50.359Z,15.00
2019-04-27T16:22:18.416Z,16.42
2019-04-27T16:24:49.388Z,15.00
2019-04-27T16:27:15.188Z,15.75
2019-04-27T16:29:43.698Z,15.20
2019-04-27T16:32:12.362Z,13.65
2019-04-27T16:34:41.330Z,15.98
2019-04-27T16:37:14.015Z,14.83
2019-04-27T16:39:45.516Z,15.23
2019-04-27T16:42:14.087Z,15.95
2019-04-27T16:44:39.975Z,13.70
2019-04-27T16:47:08.341Z,14.25
2019-04-27T16:52:15.916Z,13.65
2019-04-27T16:54:42.234Z,14.50
2019-04-27T16:57:10.852Z,14.00
2019-04-27T16:59:44.088Z,14.33
2019-04-27T17:02:08.374Z,13.48
2019-04-27T17:04:38.495Z,14.05
2019-04-27T17:07:09.078Z,13.03
2019-04-27T17:09:36.469Z,11.18
2019-04-27T17:12:11.814Z,12.43
2019-04-27T17:14:52.466Z,12.23
2019-04-27T17:17:30.224Z,12.88
2019-04-27T17:20:01.197Z,12.60
2019-04-27T17:22:29.702Z,11.70
2019-04-27T17:24:58.379Z,12.18
2019-04-27T17:27:32.822Z,11.15
2019-04-27T17:30:01.862Z,11.88
2019-04-27T17:32:35.386Z,19.32
2019-04-27T17:35:07.379Z,19.67
2019-04-27T17:37:34.208Z,20.23
2019-04-27T17:40:03.509Z,17.67
2019-04-27T17:42:32.090Z,17.10
2019-04-27T17:45:01.144Z,12.35
2019-04-27T17:47:31.499Z,12.25
2019-04-27T17:50:00.552Z,12.20
2019-04-27T17:52:29.142Z,11.53
2019-04-27T17:54:59.009Z,12.10
2019-04-27T17:57:30.121Z,11.50
2019-04-27T18:00:01.559Z,11.63
2019-04-27T18:02:24.634Z,10.58
2019-04-27T18:04:53.214Z,10.40
2019-04-27T18:07:21.734Z,9.98
2019-04-27T18:09:51.594Z,9.03
2019-04-27T18:12:20.312Z,9.10
2019-04-27T18:14:48.948Z,9.18
2019-04-27T18:17:19.620Z,9.68
2019-04-27T18:19:50.226Z,8.50
2019-04-27T18:22:20.023Z,8.10
2019-04-27T18:24:55.627Z,7.42
2019-04-27T18:27:26.950Z,7.87
2019-04-27T18:30:03.294Z,7.53
2019-04-27T18:32:28.749Z,7.95
2019-04-27T18:34:58.458Z,7.37
2019-04-27T18:37:25.601Z,7.83
2019-04-27T18:39:55.021Z,8.10
2019-04-27T18:42:23.336Z,7.30
2019-04-27T18:47:27.269Z,6.83
2019-04-27T18:50:11.001Z,7.72
2019-04-27T18:52:47.640Z,6.95
2019-04-27T18:55:16.716Z,7.57
2019-04-27T18:57:45.892Z,7.87
2019-04-27T19:00:12.509Z,7.03
2019-04-27T19:02:41.594Z,7.80
2019-04-27T19:19:10.833Z,7.80
2019-04-27T19:21:39.575Z,7.90
2019-04-27T19:24:08.892Z,7.70
2019-04-27T19:26:43.815Z,8.20
2019-04-27T19:29:19.431Z,9.03
2019-04-27T19:31:51.575Z,8.95
2019-04-27T19:34:20.162Z,9.70
2019-04-27T19:36:49.040Z,9.88
2019-04-27T19:39:18.144Z,8.70
2019-04-27T19:41:56.614Z,9.28
2019-04-27T19:44:18.767Z,8.83
2019-04-27T19:46:49.031Z,8.38
2019-04-27T19:49:16.043Z,8.45
2019-04-27T19:51:44.718Z,8.35
2019-04-27T19:54:13.351Z,8.25
2019-04-27T19:56:41.938Z,8.18
2019-04-27T19:59:18.633Z,8.40
2019-04-27T20:01:48.131Z,8.50
2019-04-27T20:06:50.966Z,8.15
2019-04-27T20:09:24.434Z,8.93
2019-04-27T20:11:53.054Z,8.65
2019-04-27T20:14:21.666Z,9.43
2019-04-27T20:16:51.921Z,8.73
2019-04-27T20:19:18.934Z,8.50
2019-04-27T20:21:47.570Z,7.97
2019-04-27T20:24:16.720Z,9.10
2019-04-27T20:26:45.287Z,9.15
2019-04-27T20:29:13.790Z,8.78
2019-04-27T20:31:43.194Z,8.48
2019-04-27T20:34:11.862Z,8.58
2019-04-27T20:36:41.568Z,9.75
2019-04-27T20:39:11.605Z,9.82
2019-04-27T20:41:38.710Z,9.33
2019-04-27T20:44:07.530Z,8.98
2019-04-27T20:46:36.057Z,9.35
2019-04-27T20:54:01.790Z,9.43
2019-04-27T20:56:30.259Z,8.58
2019-04-27T20:59:00.825Z,8.30
2019-04-27T21:01:28.670Z,8.63
2019-04-27T21:03:57.334Z,8.03
2019-04-27T21:06:33.052Z,8.73
2019-04-27T21:09:03.004Z,8.38
2019-04-27T21:11:34.301Z,9.15
2019-04-27T21:14:02.809Z,8.13
2019-04-27T21:16:31.436Z,7.85
2019-04-27T21:19:02.030Z,7.80
2019-04-27T21:21:30.277Z,8.05
2019-04-27T21:24:06.724Z,7.53
2019-04-27T21:26:35.256Z,10.68
2019-04-27T21:29:04.068Z,10.45
2019-04-27T21:31:32.620Z,9.35
2019-04-27T21:34:01.312Z,7.85
2019-04-27T21:36:30.973Z,8.05
2019-04-27T21:38:58.600Z,7.90
2019-04-27T21:41:27.273Z,7.45
2019-04-27T21:43:55.811Z,9.50
2019-04-27T21:46:24.371Z,10.20
2019-04-27T21:51:29.751Z,12.10
2019-04-27T21:54:03.071Z,11.45
2019-04-27T21:56:31.691Z,9.13
2019-04-27T21:59:01.076Z,8.65
2019-04-27T22:01:32.615Z,7.05
2019-04-27T22:04:01.292Z,6.75
2019-04-27T22:06:29.904Z,7.78
2019-04-27T22:08:58.489Z,9.30
2019-04-27T22:11:27.031Z,7.17
2019-04-27T22:13:56.051Z,7.62
2019-04-27T22:16:24.638Z,6.37
2019-04-27T22:18:53.183Z,5.75
2019-04-27T22:21:22.243Z,5.67
2019-04-27T22:24:24.651Z,6.58
2019-04-27T22:26:53.347Z,6.53
2019-04-27T22:31:56.904Z,8.28
2019-04-27T22:34:25.464Z,6.90
2019-04-27T22:36:54.023Z,6.50
2019-04-27T22:39:27.256Z,6.60
2019-04-27T22:42:01.773Z,6.08
2019-04-27T22:47:04.747Z,6.55
2019-04-27T22:49:34.204Z,6.78
2019-04-27T22:52:02.827Z,6.25
2019-04-27T22:54:31.917Z,7.05
2019-04-27T22:57:01.596Z,6.85
2019-04-27T22:59:41.234Z,7.33
2019-04-27T23:02:19.132Z,7.30
2019-04-27T23:04:51.593Z,8.03
2019-04-27T23:07:21.148Z,7.05
2019-04-27T23:09:51.474Z,7.42
2019-04-27T23:12:17.820Z,7.70
2019-04-27T23:14:46.344Z,7.67
2019-04-27T23:17:20.056Z,7.60
2019-04-27T23:19:48.728Z,7.12
2019-04-27T23:22:17.240Z,7.75
2019-04-27T23:24:45.804Z,8.13
2019-04-27T23:27:15.392Z,7.80
2019-04-27T23:29:42.944Z,8.03
2019-04-27T23:32:15.743Z,7.25
2019-04-27T23:34:44.323Z,8.10
2019-04-27T23:37:12.835Z,7.60
2019-04-27T23:39:41.372Z,7.65
2019-04-27T23:42:11.551Z,7.77
2019-04-27T23:44:39.255Z,7.53
2019-04-27T23:47:08.363Z,7.78
2019-04-27T23:49:36.895Z,7.67
2019-04-27T23:52:11.883Z,7.17
2019-04-27T23:54:42.766Z,7.03
2019-04-27T23:57:09.211Z,6.40
2019-04-27T23:59:37.787Z,7.12
